sensor_id;sensor_type;location;lat;lon;timestamp;P1;durP1;ratioP1;P2;durP2;ratioP2
25057;SDS011;13057;50.978;11.034;2022-08-02T00:02:02;2.78;;;1.60;;
25057;SDS011;13057;50.978;11.034;2022-08-02T00:04:29;2.92;;;1.65;;
25057;SDS011;13057;50.978;11.034;2022-08-02T00:06:55;2.13;;;1.70;;
25057;SDS011;13057;50.978;11.034;2022-08-02T00:09:21;3.58;;;1.50;;
25057;SDS011;13057;50.978;11.034;2022-08-02T00:11:47;6.35;;;1.40;;
25057;SDS011;13057;50.978;11.034;2022-08-02T00:14:13;2.92;;;1.88;;
25057;SDS011;13057;50.978;11.034;2022-08-02T00:16:38;3.25;;;1.60;;
25057;SDS011;13057;50.978;11.034;2022-08-02T00:19:04;2.95;;;1.88;;
25057;SDS011;13057;50.978;11.034;2022-08-02T00:21:31;3.85;;;1.60;;
25057;SDS011;13057;50.978;11.034;2022-08-02T00:23:56;3.38;;;1.63;;
25057;SDS011;13057;50.978;11.034;2022-08-02T00:26:22;2.42;;;1.50;;
25057;SDS011;13057;50.978;11.034;2022-08-02T00:28:48;1.67;;;1.20;;
25057;SDS011;13057;50.978;11.034;2022-08-02T00:31:14;2.53;;;1.30;;
25057;SDS011;13057;50.978;11.034;2022-08-02T00:33:40;2.58;;;1.85;;
25057;SDS011;13057;50.978;11.034;2022-08-02T00:36:06;9.70;;;1.70;;
25057;SDS011;13057;50.978;11.034;2022-08-02T00:38:32;3.60;;;1.50;;
25057;SDS011;13057;50.978;11.034;2022-08-02T00:40:58;5.28;;;1.50;;
25057;SDS011;13057;50.978;11.034;2022-08-02T00:43:23;1.50;;;1.40;;
25057;SDS011;13057;50.978;11.034;2022-08-02T00:45:49;3.85;;;1.60;;
25057;SDS011;13057;50.978;11.034;2022-08-02T00:48:15;2.88;;;1.67;;
25057;SDS011;13057;50.978;11.034;2022-08-02T00:50:41;1.90;;;1.58;;
25057;SDS011;13057;50.978;11.034;2022-08-02T00:53:07;5.82;;;1.80;;
25057;SDS011;13057;50.978;11.034;2022-08-02T00:55:34;1.80;;;1.42;;
25057;SDS011;13057;50.978;11.034;2022-08-02T00:58:01;2.83;;;1.83;;
25057;SDS011;13057;50.978;11.034;2022-08-02T01:00:27;2.42;;;1.63;;
25057;SDS011;13057;50.978;11.034;2022-08-02T01:02:53;1.75;;;1.65;;
25057;SDS011;13057;50.978;11.034;2022-08-02T01:05:19;2.10;;;1.65;;
25057;SDS011;13057;50.978;11.034;2022-08-02T01:07:45;2.65;;;1.90;;
25057;SDS011;13057;50.978;11.034;2022-08-02T01:10:11;2.75;;;1.70;;
25057;SDS011;13057;50.978;11.034;2022-08-02T01:12:37;2.78;;;1.77;;
25057;SDS011;13057;50.978;11.034;2022-08-02T01:15:05;2.15;;;1.48;;
25057;SDS011;13057;50.978;11.034;2022-08-02T01:17:37;3.92;;;1.60;;
25057;SDS011;13057;50.978;11.034;2022-08-02T01:29:07;4.18;;;1.67;;
25057;SDS011;13057;50.978;11.034;2022-08-02T01:31:47;1.90;;;1.70;;
25057;SDS011;13057;50.978;11.034;2022-08-02T01:34:21;2.40;;;1.88;;
25057;SDS011;13057;50.978;11.034;2022-08-02T01:37:00;2.35;;;2.10;;
25057;SDS011;13057;50.978;11.034;2022-08-02T01:39:40;1.67;;;1.58;;
25057;SDS011;13057;50.978;11.034;2022-08-02T01:42:08;2.83;;;1.65;;
25057;SDS011;13057;50.978;11.034;2022-08-02T01:44:37;2.42;;;1.63;;
25057;SDS011;13057;50.978;11.034;2022-08-02T01:47:07;2.03;;;1.70;;
25057;SDS011;13057;50.978;11.034;2022-08-02T01:49:38;2.33;;;1.75;;
25057;SDS011;13057;50.978;11.034;2022-08-02T01:52:05;5.50;;;2.05;;
25057;SDS011;13057;50.978;11.034;2022-08-02T01:54:45;2.72;;;1.90;;
25057;SDS011;13057;50.978;11.034;2022-08-02T01:57:18;3.88;;;1.80;;
25057;SDS011;13057;50.978;11.034;2022-08-02T01:59:45;4.78;;;1.85;;
25057;SDS011;13057;50.978;11.034;2022-08-02T02:02:13;2.28;;;1.70;;
25057;SDS011;13057;50.978;11.034;2022-08-02T02:04:40;2.13;;;1.55;;
25057;SDS011;13057;50.978;11.034;2022-08-02T02:07:08;2.25;;;1.80;;
25057;SDS011;13057;50.978;11.034;2022-08-02T02:09:37;3.30;;;1.85;;
25057;SDS011;13057;50.978;11.034;2022-08-02T02:12:03;2.22;;;1.90;;
25057;SDS011;13057;50.978;11.034;2022-08-02T02:14:31;1.90;;;1.80;;
25057;SDS011;13057;50.978;11.034;2022-08-02T02:16:58;3.58;;;2.00;;
25057;SDS011;13057;50.978;11.034;2022-08-02T02:19:26;2.47;;;1.83;;
25057;SDS011;13057;50.978;11.034;2022-08-02T02:21:53;2.35;;;1.70;;
25057;SDS011;13057;50.978;11.034;2022-08-02T02:24:19;2.47;;;2.00;;
25057;SDS011;13057;50.978;11.034;2022-08-02T02:26:45;2.90;;;1.90;;
25057;SDS011;13057;50.978;11.034;2022-08-02T02:29:12;3.75;;;1.75;;
25057;SDS011;13057;50.978;11.034;2022-08-02T02:31:41;2.22;;;2.00;;
25057;SDS011;13057;50.978;11.034;2022-08-02T02:34:11;2.00;;;1.80;;
25057;SDS011;13057;50.978;11.034;2022-08-02T02:36:42;2.47;;;2.10;;
25057;SDS011;13057;50.978;11.034;2022-08-02T02:41:39;3.35;;;1.90;;
25057;SDS011;13057;50.978;11.034;2022-08-02T02:44:08;6.18;;;2.10;;
25057;SDS011;13057;50.978;11.034;2022-08-02T02:46:38;3.25;;;1.98;;
25057;SDS011;13057;50.978;11.034;2022-08-02T02:49:06;2.28;;;1.95;;
25057;SDS011;13057;50.978;11.034;2022-08-02T02:51:35;2.25;;;1.85;;
25057;SDS011;13057;50.978;11.034;2022-08-02T02:54:04;3.17;;;2.20;;
25057;SDS011;13057;50.978;11.034;2022-08-02T02:56:30;3.28;;;2.15;;
25057;SDS011;13057;50.978;11.034;2022-08-02T02:58:56;2.58;;;2.03;;
25057;SDS011;13057;50.978;11.034;2022-08-02T03:01:24;3.20;;;2.30;;
25057;SDS011;13057;50.978;11.034;2022-08-02T03:03:52;3.42;;;2.80;;
25057;SDS011;13057;50.978;11.034;2022-08-02T03:06:19;7.25;;;3.15;;
25057;SDS011;13057;50.978;11.034;2022-08-02T03:08:45;6.07;;;2.90;;
25057;SDS011;13057;50.978;11.034;2022-08-02T03:11:11;3.67;;;3.10;;
25057;SDS011;13057;50.978;11.034;2022-08-02T03:13:38;3.63;;;3.03;;
25057;SDS011;13057;50.978;11.034;2022-08-02T03:16:04;4.60;;;2.95;;
25057;SDS011;13057;50.978;11.034;2022-08-02T03:18:32;4.28;;;2.97;;
25057;SDS011;13057;50.978;11.034;2022-08-02T03:21:01;3.00;;;2.70;;
25057;SDS011;13057;50.978;11.034;2022-08-02T03:23:28;4.82;;;3.00;;
25057;SDS011;13057;50.978;11.034;2022-08-02T03:25:54;5.25;;;3.35;;
25057;SDS011;13057;50.978;11.034;2022-08-02T03:28:20;6.03;;;3.20;;
25057;SDS011;13057;50.978;11.034;2022-08-02T03:30:46;4.75;;;3.15;;
25057;SDS011;13057;50.978;11.034;2022-08-02T03:33:12;3.70;;;2.92;;
25057;SDS011;13057;50.978;11.034;2022-08-02T03:35:39;4.55;;;3.10;;
25057;SDS011;13057;50.978;11.034;2022-08-02T03:38:06;5.15;;;3.25;;
25057;SDS011;13057;50.978;11.034;2022-08-02T03:40:35;5.65;;;3.58;;
25057;SDS011;13057;50.978;11.034;2022-08-02T03:43:01;4.25;;;3.17;;
25057;SDS011;13057;50.978;11.034;2022-08-02T03:45:27;5.05;;;3.42;;
25057;SDS011;13057;50.978;11.034;2022-08-02T03:47:54;8.68;;;3.97;;
25057;SDS011;13057;50.978;11.034;2022-08-02T03:50:21;5.75;;;3.38;;
25057;SDS011;13057;50.978;11.034;2022-08-02T03:52:47;5.10;;;3.60;;
25057;SDS011;13057;50.978;11.034;2022-08-02T03:55:14;5.20;;;3.80;;
25057;SDS011;13057;50.978;11.034;2022-08-02T03:57:40;8.52;;;4.93;;
25057;SDS011;13057;50.978;11.034;2022-08-02T04:00:07;4.78;;;3.63;;
25057;SDS011;13057;50.978;11.034;2022-08-02T04:02:35;4.57;;;3.63;;
25057;SDS011;13057;50.978;11.034;2022-08-02T04:05:01;5.88;;;3.78;;
25057;SDS011;13057;50.978;11.034;2022-08-02T04:07:27;5.18;;;3.60;;
25057;SDS011;13057;50.978;11.034;2022-08-02T04:09:53;7.55;;;3.60;;
25057;SDS011;13057;50.978;11.034;2022-08-02T04:12:19;6.57;;;3.45;;
25057;SDS011;13057;50.978;11.034;2022-08-02T04:14:45;6.28;;;4.00;;
25057;SDS011;13057;50.978;11.034;2022-08-02T04:17:11;7.93;;;3.88;;
25057;SDS011;13057;50.978;11.034;2022-08-02T04:19:41;5.07;;;3.88;;
25057;SDS011;13057;50.978;11.034;2022-08-02T04:22:13;6.05;;;3.40;;
25057;SDS011;13057;50.978;11.034;2022-08-02T04:24:44;5.82;;;3.72;;
25057;SDS011;13057;50.978;11.034;2022-08-02T04:27:14;5.88;;;3.97;;
25057;SDS011;13057;50.978;11.034;2022-08-02T04:29:40;7.68;;;3.63;;
25057;SDS011;13057;50.978;11.034;2022-08-02T04:32:07;10.95;;;4.03;;
25057;SDS011;13057;50.978;11.034;2022-08-02T04:34:35;5.50;;;3.38;;
25057;SDS011;13057;50.978;11.034;2022-08-02T04:37:01;5.55;;;3.33;;
25057;SDS011;13057;50.978;11.034;2022-08-02T04:39:27;5.95;;;3.40;;
25057;SDS011;13057;50.978;11.034;2022-08-02T04:41:53;10.38;;;3.63;;
25057;SDS011;13057;50.978;11.034;2022-08-02T04:44:19;5.50;;;3.50;;
25057;SDS011;13057;50.978;11.034;2022-08-02T04:46:44;4.85;;;3.58;;
25057;SDS011;13057;50.978;11.034;2022-08-02T04:49:11;5.60;;;3.65;;
25057;SDS011;13057;50.978;11.034;2022-08-02T04:51:38;8.30;;;4.03;;
25057;SDS011;13057;50.978;11.034;2022-08-02T04:54:06;4.75;;;3.50;;
25057;SDS011;13057;50.978;11.034;2022-08-02T04:56:33;7.18;;;3.63;;
25057;SDS011;13057;50.978;11.034;2022-08-02T04:58:59;7.32;;;3.85;;
25057;SDS011;13057;50.978;11.034;2022-08-02T05:01:25;5.55;;;3.90;;
25057;SDS011;13057;50.978;11.034;2022-08-02T05:03:51;11.20;;;4.38;;
25057;SDS011;13057;50.978;11.034;2022-08-02T05:06:17;6.97;;;4.10;;
25057;SDS011;13057;50.978;11.034;2022-08-02T05:08:46;7.45;;;4.18;;
25057;SDS011;13057;50.978;11.034;2022-08-02T05:11:12;10.20;;;4.18;;
25057;SDS011;13057;50.978;11.034;2022-08-02T05:13:39;6.50;;;4.60;;
25057;SDS011;13057;50.978;11.034;2022-08-02T05:16:05;15.75;;;4.40;;
25057;SDS011;13057;50.978;11.034;2022-08-02T05:18:31;14.88;;;4.38;;
25057;SDS011;13057;50.978;11.034;2022-08-02T05:20:58;7.53;;;4.30;;
25057;SDS011;13057;50.978;11.034;2022-08-02T05:23:23;5.38;;;3.97;;
25057;SDS011;13057;50.978;11.034;2022-08-02T05:25:49;7.30;;;4.38;;
25057;SDS011;13057;50.978;11.034;2022-08-02T05:28:15;7.80;;;4.40;;
25057;SDS011;13057;50.978;11.034;2022-08-02T05:30:41;9.63;;;4.45;;
25057;SDS011;13057;50.978;11.034;2022-08-02T05:33:07;7.88;;;4.28;;
25057;SDS011;13057;50.978;11.034;2022-08-02T05:35:33;8.25;;;4.30;;
25057;SDS011;13057;50.978;11.034;2022-08-02T05:37:59;7.03;;;4.70;;
25057;SDS011;13057;50.978;11.034;2022-08-02T05:40:25;7.20;;;4.25;;
25057;SDS011;13057;50.978;11.034;2022-08-02T05:42:50;7.82;;;4.00;;
25057;SDS011;13057;50.978;11.034;2022-08-02T05:45:16;145.95;;;9.45;;
25057;SDS011;13057;50.978;11.034;2022-08-02T05:47:43;9.50;;;4.13;;
25057;SDS011;13057;50.978;11.034;2022-08-02T05:50:08;8.02;;;3.88;;
25057;SDS011;13057;50.978;11.034;2022-08-02T05:52:38;6.35;;;4.35;;
25057;SDS011;13057;50.978;11.034;2022-08-02T05:55:11;10.75;;;3.95;;
25057;SDS011;13057;50.978;11.034;2022-08-02T05:57:47;14.38;;;4.32;;
25057;SDS011;13057;50.978;11.034;2022-08-02T06:00:26;7.70;;;4.28;;
25057;SDS011;13057;50.978;11.034;2022-08-02T06:03:02;5.03;;;3.67;;
25057;SDS011;13057;50.978;11.034;2022-08-02T06:05:34;6.68;;;4.30;;
25057;SDS011;13057;50.978;11.034;2022-08-02T06:08:05;5.72;;;4.20;;
25057;SDS011;13057;50.978;11.034;2022-08-02T06:10:35;6.10;;;4.07;;
25057;SDS011;13057;50.978;11.034;2022-08-02T06:13:06;5.75;;;4.28;;
25057;SDS011;13057;50.978;11.034;2022-08-02T06:15:36;8.45;;;4.70;;
25057;SDS011;13057;50.978;11.034;2022-08-02T06:18:03;6.57;;;4.40;;
25057;SDS011;13057;50.978;11.034;2022-08-02T06:20:30;8.20;;;4.25;;
25057;SDS011;13057;50.978;11.034;2022-08-02T06:23:00;5.50;;;4.10;;
25057;SDS011;13057;50.978;11.034;2022-08-02T06:25:28;6.82;;;4.28;;
25057;SDS011;13057;50.978;11.034;2022-08-02T06:27:55;7.32;;;4.25;;
25057;SDS011;13057;50.978;11.034;2022-08-02T06:30:22;8.75;;;4.03;;
25057;SDS011;13057;50.978;11.034;2022-08-02T06:32:49;7.93;;;4.32;;
25057;SDS011;13057;50.978;11.034;2022-08-02T06:35:16;6.32;;;3.92;;
25057;SDS011;13057;50.978;11.034;2022-08-02T06:37:43;6.22;;;4.10;;
25057;SDS011;13057;50.978;11.034;2022-08-02T06:40:23;7.47;;;4.47;;
25057;SDS011;13057;50.978;11.034;2022-08-02T06:43:02;5.95;;;3.70;;
25057;SDS011;13057;50.978;11.034;2022-08-02T06:45:42;6.88;;;4.15;;
25057;SDS011;13057;50.978;11.034;2022-08-02T06:48:11;8.38;;;3.92;;
25057;SDS011;13057;50.978;11.034;2022-08-02T06:50:38;7.78;;;4.00;;
25057;SDS011;13057;50.978;11.034;2022-08-02T06:53:06;7.72;;;3.67;;
25057;SDS011;13057;50.978;11.034;2022-08-02T06:55:32;9.35;;;3.80;;
25057;SDS011;13057;50.978;11.034;2022-08-02T06:57:58;8.98;;;3.28;;
25057;SDS011;13057;50.978;11.034;2022-08-02T07:00:25;7.25;;;2.92;;
25057;SDS011;13057;50.978;11.034;2022-08-02T07:02:52;9.27;;;2.80;;
25057;SDS011;13057;50.978;11.034;2022-08-02T07:05:18;6.18;;;2.90;;
25057;SDS011;13057;50.978;11.034;2022-08-02T07:07:44;7.00;;;3.15;;
25057;SDS011;13057;50.978;11.034;2022-08-02T07:10:10;6.43;;;3.25;;
25057;SDS011;13057;50.978;11.034;2022-08-02T07:12:38;7.75;;;2.90;;
25057;SDS011;13057;50.978;11.034;2022-08-02T07:15:04;8.20;;;2.80;;
25057;SDS011;13057;50.978;11.034;2022-08-02T07:17:32;5.53;;;2.90;;
25057;SDS011;13057;50.978;11.034;2022-08-02T07:19:59;8.85;;;3.08;;
25057;SDS011;13057;50.978;11.034;2022-08-02T07:22:25;5.68;;;2.67;;
25057;SDS011;13057;50.978;11.034;2022-08-02T07:24:55;8.77;;;3.03;;
25057;SDS011;13057;50.978;11.034;2022-08-02T07:27:26;7.28;;;2.90;;
25057;SDS011;13057;50.978;11.034;2022-08-02T07:29:55;6.88;;;2.70;;
25057;SDS011;13057;50.978;11.034;2022-08-02T07:32:22;6.63;;;2.78;;
25057;SDS011;13057;50.978;11.034;2022-08-02T07:34:50;9.77;;;3.05;;
25057;SDS011;13057;50.978;11.034;2022-08-02T07:37:17;7.55;;;3.28;;
25057;SDS011;13057;50.978;11.034;2022-08-02T07:39:43;8.15;;;3.13;;
25057;SDS011;13057;50.978;11.034;2022-08-02T07:42:08;10.30;;;2.88;;
25057;SDS011;13057;50.978;11.034;2022-08-02T07:44:34;7.35;;;2.70;;
25057;SDS011;13057;50.978;11.034;2022-08-02T07:47:00;5.82;;;2.92;;
25057;SDS011;13057;50.978;11.034;2022-08-02T07:49:26;7.95;;;2.78;;
25057;SDS011;13057;50.978;11.034;2022-08-02T07:51:58;8.88;;;3.47;;
25057;SDS011;13057;50.978;11.034;2022-08-02T07:54:24;5.15;;;2.83;;
25057;SDS011;13057;50.978;11.034;2022-08-02T07:56:50;8.20;;;2.88;;
25057;SDS011;13057;50.978;11.034;2022-08-02T07:59:18;6.63;;;2.78;;
25057;SDS011;13057;50.978;11.034;2022-08-02T08:01:44;7.00;;;3.13;;
25057;SDS011;13057;50.978;11.034;2022-08-02T08:04:10;7.22;;;4.13;;
25057;SDS011;13057;50.978;11.034;2022-08-02T08:06:36;8.18;;;2.30;;
25057;SDS011;13057;50.978;11.034;2022-08-02T08:09:02;3.42;;;2.45;;
25057;SDS011;13057;50.978;11.034;2022-08-02T08:11:28;3.92;;;2.40;;
25057;SDS011;13057;50.978;11.034;2022-08-02T08:13:54;6.18;;;3.08;;
25057;SDS011;13057;50.978;11.034;2022-08-02T08:16:20;8.15;;;2.50;;
25057;SDS011;13057;50.978;11.034;2022-08-02T08:18:45;6.38;;;2.60;;
25057;SDS011;13057;50.978;11.034;2022-08-02T08:21:14;7.43;;;3.30;;
25057;SDS011;13057;50.978;11.034;2022-08-02T08:23:40;5.65;;;2.97;;
25057;SDS011;13057;50.978;11.034;2022-08-02T08:26:06;6.25;;;3.92;;
25057;SDS011;13057;50.978;11.034;2022-08-02T08:28:32;6.32;;;2.50;;
25057;SDS011;13057;50.978;11.034;2022-08-02T08:30:59;5.60;;;2.58;;
25057;SDS011;13057;50.978;11.034;2022-08-02T08:33:26;5.05;;;2.90;;
25057;SDS011;13057;50.978;11.034;2022-08-02T08:35:52;5.75;;;2.85;;
25057;SDS011;13057;50.978;11.034;2022-08-02T08:38:18;3.35;;;2.65;;
25057;SDS011;13057;50.978;11.034;2022-08-02T08:40:45;6.97;;;2.13;;
25057;SDS011;13057;50.978;11.034;2022-08-02T08:43:13;6.05;;;2.70;;
25057;SDS011;13057;50.978;11.034;2022-08-02T08:45:42;6.00;;;2.47;;
25057;SDS011;13057;50.978;11.034;2022-08-02T08:48:10;3.70;;;2.35;;
25057;SDS011;13057;50.978;11.034;2022-08-02T08:50:44;5.63;;;2.60;;
25057;SDS011;13057;50.978;11.034;2022-08-02T08:53:15;5.35;;;2.70;;
25057;SDS011;13057;50.978;11.034;2022-08-02T08:55:42;3.83;;;2.25;;
25057;SDS011;13057;50.978;11.034;2022-08-02T08:58:09;7.15;;;2.50;;
25057;SDS011;13057;50.978;11.034;2022-08-02T09:00:36;4.95;;;2.30;;
25057;SDS011;13057;50.978;11.034;2022-08-02T09:03:02;5.20;;;2.50;;
25057;SDS011;13057;50.978;11.034;2022-08-02T09:05:30;6.88;;;2.60;;
25057;SDS011;13057;50.978;11.034;2022-08-02T09:07:59;6.45;;;2.25;;
25057;SDS011;13057;50.978;11.034;2022-08-02T09:10:35;6.78;;;2.45;;
25057;SDS011;13057;50.978;11.034;2022-08-02T09:13:07;6.53;;;2.25;;
25057;SDS011;13057;50.978;11.034;2022-08-02T09:15:40;3.42;;;1.92;;
25057;SDS011;13057;50.978;11.034;2022-08-02T09:18:08;10.48;;;2.40;;
25057;SDS011;13057;50.978;11.034;2022-08-02T09:20:49;4.00;;;2.50;;
25057;SDS011;13057;50.978;11.034;2022-08-02T09:23:17;2.72;;;1.80;;
25057;SDS011;13057;50.978;11.034;2022-08-02T09:25:54;3.90;;;2.60;;
25057;SDS011;13057;50.978;11.034;2022-08-02T09:28:24;6.70;;;2.30;;
25057;SDS011;13057;50.978;11.034;2022-08-02T09:30:52;7.95;;;2.30;;
25057;SDS011;13057;50.978;11.034;2022-08-02T09:33:25;5.40;;;2.13;;
25057;SDS011;13057;50.978;11.034;2022-08-02T09:35:59;4.13;;;2.28;;
25057;SDS011;13057;50.978;11.034;2022-08-02T09:38:27;7.25;;;2.40;;
25057;SDS011;13057;50.978;11.034;2022-08-02T09:40:53;5.32;;;2.92;;
25057;SDS011;13057;50.978;11.034;2022-08-02T09:43:19;4.78;;;2.15;;
25057;SDS011;13057;50.978;11.034;2022-08-02T09:45:45;4.90;;;2.67;;
25057;SDS011;13057;50.978;11.034;2022-08-02T09:48:11;6.28;;;2.75;;
25057;SDS011;13057;50.978;11.034;2022-08-02T09:50:38;4.32;;;2.63;;
25057;SDS011;13057;50.978;11.034;2022-08-02T09:53:05;4.47;;;2.17;;
25057;SDS011;13057;50.978;11.034;2022-08-02T09:55:38;8.35;;;3.50;;
25057;SDS011;13057;50.978;11.034;2022-08-02T09:58:15;7.35;;;3.05;;
25057;SDS011;13057;50.978;11.034;2022-08-02T10:00:52;3.47;;;2.10;;
25057;SDS011;13057;50.978;11.034;2022-08-02T10:03:19;4.47;;;2.20;;
25057;SDS011;13057;50.978;11.034;2022-08-02T10:05:46;4.60;;;2.20;;
25057;SDS011;13057;50.978;11.034;2022-08-02T10:08:14;4.40;;;2.10;;
25057;SDS011;13057;50.978;11.034;2022-08-02T10:10:40;4.35;;;2.25;;
25057;SDS011;13057;50.978;11.034;2022-08-02T10:13:07;5.60;;;2.28;;
25057;SDS011;13057;50.978;11.034;2022-08-02T10:15:34;10.23;;;2.28;;
25057;SDS011;13057;50.978;11.034;2022-08-02T10:18:02;4.30;;;1.90;;
25057;SDS011;13057;50.978;11.034;2022-08-02T10:20:30;3.83;;;1.70;;
25057;SDS011;13057;50.978;11.034;2022-08-02T10:23:01;2.13;;;1.83;;
25057;SDS011;13057;50.978;11.034;2022-08-02T10:25:29;3.40;;;2.08;;
25057;SDS011;13057;50.978;11.034;2022-08-02T10:27:56;4.30;;;2.17;;
25057;SDS011;13057;50.978;11.034;2022-08-02T10:30:22;5.55;;;2.30;;
25057;SDS011;13057;50.978;11.034;2022-08-02T10:32:49;2.70;;;2.00;;
25057;SDS011;13057;50.978;11.034;2022-08-02T10:35:20;10.40;;;5.10;;
25057;SDS011;13057;50.978;11.034;2022-08-02T10:37:49;3.17;;;2.15;;
25057;SDS011;13057;50.978;11.034;2022-08-02T10:40:18;4.38;;;2.17;;
25057;SDS011;13057;50.978;11.034;2022-08-02T10:42:47;4.40;;;1.88;;
25057;SDS011;13057;50.978;11.034;2022-08-02T10:45:16;5.10;;;2.50;;
25057;SDS011;13057;50.978;11.034;2022-08-02T10:53:22;5.55;;;1.90;;
25057;SDS011;13057;50.978;11.034;2022-08-02T10:55:56;2.40;;;1.85;;
25057;SDS011;13057;50.978;11.034;2022-08-02T10:58:25;2.55;;;1.95;;
25057;SDS011;13057;50.978;11.034;2022-08-02T11:00:53;2.70;;;1.73;;
25057;SDS011;13057;50.978;11.034;2022-08-02T11:03:34;5.35;;;1.85;;
25057;SDS011;13057;50.978;11.034;2022-08-02T11:06:06;2.65;;;1.83;;
25057;SDS011;13057;50.978;11.034;2022-08-02T11:08:34;4.63;;;1.75;;
25057;SDS011;13057;50.978;11.034;2022-08-02T11:11:14;2.30;;;1.50;;
25057;SDS011;13057;50.978;11.034;2022-08-02T11:19:26;2.35;;;1.58;;
25057;SDS011;13057;50.978;11.034;2022-08-02T11:22:00;2.40;;;1.77;;
25057;SDS011;13057;50.978;11.034;2022-08-02T11:24:30;2.38;;;1.60;;
25057;SDS011;13057;50.978;11.034;2022-08-02T11:26:58;3.75;;;1.88;;
25057;SDS011;13057;50.978;11.034;2022-08-02T11:29:30;3.45;;;1.55;;
25057;SDS011;13057;50.978;11.034;2022-08-02T11:31:57;4.93;;;1.90;;
25057;SDS011;13057;50.978;11.034;2022-08-02T11:34:23;3.08;;;1.92;;
25057;SDS011;13057;50.978;11.034;2022-08-02T11:36:50;4.10;;;2.20;;
25057;SDS011;13057;50.978;11.034;2022-08-02T11:39:19;6.47;;;2.00;;
25057;SDS011;13057;50.978;11.034;2022-08-02T11:41:53;2.58;;;1.95;;
25057;SDS011;13057;50.978;11.034;2022-08-02T11:44:21;2.15;;;1.60;;
25057;SDS011;13057;50.978;11.034;2022-08-02T11:46:53;3.55;;;1.60;;
25057;SDS011;13057;50.978;11.034;2022-08-02T11:49:20;2.55;;;1.92;;
25057;SDS011;13057;50.978;11.034;2022-08-02T11:51:50;5.68;;;1.83;;
25057;SDS011;13057;50.978;11.034;2022-08-02T11:54:24;3.78;;;1.70;;
25057;SDS011;13057;50.978;11.034;2022-08-02T11:56:52;3.83;;;1.80;;
25057;SDS011;13057;50.978;11.034;2022-08-02T11:59:18;1.90;;;1.60;;
25057;SDS011;13057;50.978;11.034;2022-08-02T12:01:44;4.25;;;2.22;;
25057;SDS011;13057;50.978;11.034;2022-08-02T12:04:10;2.30;;;2.00;;
25057;SDS011;13057;50.978;11.034;2022-08-02T12:06:39;4.00;;;1.60;;
25057;SDS011;13057;50.978;11.034;2022-08-02T12:09:06;2.10;;;1.73;;
25057;SDS011;13057;50.978;11.034;2022-08-02T12:11:34;2.15;;;1.60;;
25057;SDS011;13057;50.978;11.034;2022-08-02T12:14:01;3.67;;;3.10;;
25057;SDS011;13057;50.978;11.034;2022-08-02T12:16:34;2.00;;;1.60;;
25057;SDS011;13057;50.978;11.034;2022-08-02T12:19:14;3.53;;;1.58;;
25057;SDS011;13057;50.978;11.034;2022-08-02T12:21:44;2.63;;;1.50;;
25057;SDS011;13057;50.978;11.034;2022-08-02T12:24:11;3.47;;;2.50;;
25057;SDS011;13057;50.978;11.034;2022-08-02T12:26:40;3.75;;;2.10;;
25057;SDS011;13057;50.978;11.034;2022-08-02T12:29:08;2.97;;;1.80;;
25057;SDS011;13057;50.978;11.034;2022-08-02T12:31:39;3.13;;;1.80;;
25057;SDS011;13057;50.978;11.034;2022-08-02T12:34:11;4.13;;;1.67;;
25057;SDS011;13057;50.978;11.034;2022-08-02T12:36:42;3.78;;;2.40;;
25057;SDS011;13057;50.978;11.034;2022-08-02T12:39:11;3.17;;;1.75;;
25057;SDS011;13057;50.978;11.034;2022-08-02T12:41:38;3.15;;;1.60;;
25057;SDS011;13057;50.978;11.034;2022-08-02T12:44:06;1.95;;;1.60;;
25057;SDS011;13057;50.978;11.034;2022-08-02T12:46:40;2.42;;;1.40;;
25057;SDS011;13057;50.978;11.034;2022-08-02T12:49:13;2.60;;;1.60;;
25057;SDS011;13057;50.978;11.034;2022-08-02T12:51:40;7.35;;;1.85;;
25057;SDS011;13057;50.978;11.034;2022-08-02T12:54:15;2.20;;;1.50;;
25057;SDS011;13057;50.978;11.034;2022-08-02T12:56:45;4.82;;;1.63;;
25057;SDS011;13057;50.978;11.034;2022-08-02T12:59:13;1.85;;;1.60;;
25057;SDS011;13057;50.978;11.034;2022-08-02T13:01:40;2.83;;;1.70;;
25057;SDS011;13057;50.978;11.034;2022-08-02T13:04:06;3.25;;;1.90;;
25057;SDS011;13057;50.978;11.034;2022-08-02T13:06:32;2.75;;;1.25;;
25057;SDS011;13057;50.978;11.034;2022-08-02T13:08:59;4.82;;;1.52;;
25057;SDS011;13057;50.978;11.034;2022-08-02T13:11:26;3.28;;;1.52;;
25057;SDS011;13057;50.978;11.034;2022-08-02T13:13:52;6.20;;;3.95;;
25057;SDS011;13057;50.978;11.034;2022-08-02T13:16:18;1.63;;;1.35;;
25057;SDS011;13057;50.978;11.034;2022-08-02T13:18:44;2.72;;;1.70;;
25057;SDS011;13057;50.978;11.034;2022-08-02T13:21:10;2.03;;;1.30;;
25057;SDS011;13057;50.978;11.034;2022-08-02T13:23:36;1.40;;;1.20;;
25057;SDS011;13057;50.978;11.034;2022-08-02T13:26:03;2.08;;;1.40;;
25057;SDS011;13057;50.978;11.034;2022-08-02T13:28:29;1.90;;;1.50;;
25057;SDS011;13057;50.978;11.034;2022-08-02T13:30:55;1.75;;;1.27;;
25057;SDS011;13057;50.978;11.034;2022-08-02T13:33:21;2.45;;;1.13;;
25057;SDS011;13057;50.978;11.034;2022-08-02T13:35:47;2.20;;;1.63;;
25057;SDS011;13057;50.978;11.034;2022-08-02T13:38:14;1.42;;;1.20;;
25057;SDS011;13057;50.978;11.034;2022-08-02T13:40:40;2.28;;;1.58;;
25057;SDS011;13057;50.978;11.034;2022-08-02T13:43:18;3.17;;;1.35;;
25057;SDS011;13057;50.978;11.034;2022-08-02T13:45:44;3.20;;;1.60;;
25057;SDS011;13057;50.978;11.034;2022-08-02T13:48:10;2.20;;;1.60;;
25057;SDS011;13057;50.978;11.034;2022-08-02T13:50:35;5.43;;;1.63;;
25057;SDS011;13057;50.978;11.034;2022-08-02T13:53:02;1.73;;;1.40;;
25057;SDS011;13057;50.978;11.034;2022-08-02T13:55:28;18.48;;;4.90;;
25057;SDS011;13057;50.978;11.034;2022-08-02T13:57:56;4.10;;;1.35;;
25057;SDS011;13057;50.978;11.034;2022-08-02T14:00:23;1.55;;;1.20;;
25057;SDS011;13057;50.978;11.034;2022-08-02T14:02:51;2.42;;;1.52;;
25057;SDS011;13057;50.978;11.034;2022-08-02T14:05:17;1.10;;;1.00;;
25057;SDS011;13057;50.978;11.034;2022-08-02T14:07:42;1.40;;;1.30;;
25057;SDS011;13057;50.978;11.034;2022-08-02T14:10:08;1.25;;;1.08;;
25057;SDS011;13057;50.978;11.034;2022-08-02T14:12:34;1.92;;;1.50;;
25057;SDS011;13057;50.978;11.034;2022-08-02T14:15:00;2.13;;;1.10;;
25057;SDS011;13057;50.978;11.034;2022-08-02T14:17:26;4.22;;;1.08;;
25057;SDS011;13057;50.978;11.034;2022-08-02T14:19:52;1.58;;;1.27;;
25057;SDS011;13057;50.978;11.034;2022-08-02T14:22:18;1.30;;;1.20;;
25057;SDS011;13057;50.978;11.034;2022-08-02T14:24:44;3.45;;;1.52;;
25057;SDS011;13057;50.978;11.034;2022-08-02T14:27:09;0.80;;;0.80;;
25057;SDS011;13057;50.978;11.034;2022-08-02T14:29:35;1.50;;;1.10;;
25057;SDS011;13057;50.978;11.034;2022-08-02T14:32:01;1.00;;;0.90;;
25057;SDS011;13057;50.978;11.034;2022-08-02T14:34:27;2.22;;;1.13;;
25057;SDS011;13057;50.978;11.034;2022-08-02T14:36:54;2.75;;;1.30;;
25057;SDS011;13057;50.978;11.034;2022-08-02T14:39:20;1.42;;;1.20;;
25057;SDS011;13057;50.978;11.034;2022-08-02T14:41:46;1.70;;;1.10;;
25057;SDS011;13057;50.978;11.034;2022-08-02T14:44:12;3.40;;;1.50;;
25057;SDS011;13057;50.978;11.034;2022-08-02T14:46:39;1.25;;;1.15;;
25057;SDS011;13057;50.978;11.034;2022-08-02T14:49:07;1.88;;;1.30;;
25057;SDS011;13057;50.978;11.034;2022-08-02T14:51:35;2.20;;;1.40;;
25057;SDS011;13057;50.978;11.034;2022-08-02T14:54:03;1.92;;;1.50;;
25057;SDS011;13057;50.978;11.034;2022-08-02T14:56:30;2.58;;;1.27;;
25057;SDS011;13057;50.978;11.034;2022-08-02T14:58:57;1.38;;;1.17;;
25057;SDS011;13057;50.978;11.034;2022-08-02T15:01:23;4.95;;;1.50;;